Maldives Meteorological Service

METAR

Station
VRMM
METAR VRMM 211900Z 31008KT 9999 SCT018TCU BKN270 30/25 Q1007 NOSIG=
VRMH
METAR VRMH 211900Z 31006KT 9999 FEW018TCU SCT270 30/25 Q1008=
VRMK
METAR VRMK 211900Z 27008KT 9999 FEW018 BKN270 30/26 Q1008=
VRMT
METAR VRMT 211800Z 29010KT 9999 TS FEW017 FEW018CB BKN120 30/26 Q1008 RETS CB S,NW=
VRMG
METAR VRMG 211900Z 27011KT 8000 –RA SCT016 FEW017CB BKN100 27/24 Q1008 CB N TEMPO 5000 -TSRA=
Last Updated : 2019-04-22 00:01:44

SPECI

Station
VRMM
VRMH
VRMK
VRMT
SPECI VRMT 211855Z 29007KT 9999 FEW017 FEW018CB BKN120 28/26 Q1008 RETS CB SE,WSW=
VRMG
Last Updated : 2019-04-22 00:01:44